Terminal Aerodrome Forecast
Issued by NWS

Home | Current Version | Previous Version | Text Only | Print | Product List | Glossary On
Versions: 1 2 3 4 5 6 7 8 9 10 11 12 13 14 15 16 17 18 19 20 21 22 23 24 25 26
000
FTUS43 KLOT 231733
TAFDPA
TAF
KDPA 231733Z 2318/2418 32015G21KT P6SM OVC017
     FM232300 31012KT P6SM OVC020
     FM240300 31005KT P6SM BKN025 BKN200
     FM241400 29007KT P6SM SCT025 BKN080=

USA.gov is the U.S. government's official web portal to all federal, state and local government web resources and services.